METAR Data
IDs: Format: Raw Decoded Include TAF

Data at: 1856 UTC 16 Oct 2021

KJSO 161855Z AUTO 36005KT 10SM CLR 21/03 A3031 RMK AO2 T02140033
KJSO 161835Z AUTO 36004G08KT 10SM CLR 21/02 A3033 RMK AO2 T02110026
KJSO 161815Z AUTO 02007G17KT 10SM CLR 21/02 A3034 RMK AO2 T02090027
KJSO 161755Z AUTO 36008KT 10SM CLR 20/03 A3034 RMK AO2 T02030034
KJSO 161735Z AUTO 02008KT 350V070 10SM CLR 20/03 A3035 RMK AO2 T02030033
KJSO 161715Z AUTO 01009G15KT 360V090 10SM CLR 20/03 A3036 RMK AO2 T02010035
KJSO 161655Z AUTO 01008KT 10SM CLR 19/03 A3036 RMK AO2 T01970032
KJSO 161635Z AUTO 01008G16KT 10SM CLR 18/05 A3036 RMK AO2 T01900051
KJSO 161615Z AUTO 01007KT 10SM CLR 18/06 A3037 RMK AO2 T01860060
KJSO 161555Z AUTO 02007KT 10SM CLR 18/06 A3037 RMK AO2 T01800066
KJSO 161535Z AUTO 03006KT 10SM CLR 17/07 A3037 RMK AO2 T01750079
KJSO 161515Z AUTO 01007KT 10SM CLR 17/07 A3036 RMK AO2 T01710079
KJSO 161455Z AUTO 01006KT 10SM CLR 16/08 A3036 RMK AO2 T01590081
KJSO 161435Z AUTO 01005KT 10SM CLR 15/08 A3036 RMK AO2 T01490082
KJSO 161415Z AUTO 36003KT 10SM CLR 13/08 A3035 RMK AO2 T01380084
KJSO 161355Z AUTO 36003KT 10SM CLR 12/07 A3035 RMK AO2 T01300079
KJSO 161335Z AUTO 36004KT 10SM CLR 12/07 A3034 RMK AO2 T01210078
KJSO 161315Z AUTO 36004KT 10SM CLR 11/07 A3033 RMK AO2 T01150075
KJSO 161255Z AUTO 36003KT 10SM CLR 11/07 A3032 RMK AO2 T01120074
KJSO 161235Z AUTO 00000KT 10SM CLR 11/07 A3032 RMK AO2 T01090072
KJSO 161215Z AUTO 00000KT 10SM CLR 11/07 A3031 RMK AO2 T01100073
KJSO 161155Z AUTO 36003KT 10SM CLR 11/07 A3031 RMK AO2 T01110073
KJSO 161135Z AUTO 36004KT 10SM CLR 11/07 A3030 RMK AO2 T01130072
KJSO 161115Z AUTO 36004KT 10SM CLR 11/07 A3029 RMK AO2 T01120074
KJSO 161055Z AUTO 36005KT 10SM CLR 11/07 A3028 RMK AO2 T01130075
KJSO 161035Z AUTO 01004KT 10SM CLR 11/07 A3028 RMK AO2 T01130075
KJSO 161015Z AUTO 01004KT 10SM CLR 11/07 A3027 RMK AO2 T01160076
KJSO 160955Z AUTO 01004KT 10SM CLR 12/07 A3027 RMK AO2 T01200077
KJSO 160935Z AUTO 01004KT 10SM CLR 12/07 A3027 RMK AO2 T01200078
KJSO 160915Z AUTO 02004KT 10SM CLR 12/07 A3027 RMK AO2 T01250080
KJSO 160855Z AUTO 01004KT 10SM CLR 12/08 A3027 RMK AO2 T01250081
KJSO 160835Z AUTO 01003KT 10SM CLR 12/08 A3027 RMK AO2 T01260082
KJSO 160815Z AUTO 01003KT 10SM CLR 12/08 A3026 RMK AO2 T01300083
KJSO 160755Z AUTO 01004KT 10SM CLR 13/08 A3026 RMK AO2 T01350085
KJSO 160735Z AUTO 01004KT 10SM CLR 13/08 A3026 RMK AO2 T01390086
KJSO 160715Z AUTO 36004KT 10SM CLR 14/08 A3026 RMK AO2 T01440086
KJSO 160655Z AUTO 36006KT 10SM CLR 15/08 A3025 RMK AO2 T01480086
KJSO 160635Z AUTO 36006KT 10SM CLR 14/08 A3024 RMK AO2 T01460090
KJSO 160615Z AUTO 36004KT 10SM CLR 15/09 A3024 RMK AO2 T01490092
KJSO 160555Z AUTO 36005KT 10SM CLR 15/09 A3023 RMK AO2 T01520092
KJSO 160535Z AUTO 36006KT 10SM CLR 15/09 A3023 RMK AO2 T01550093
KJSO 160515Z AUTO 36004KT 10SM CLR 16/09 A3022 RMK AO2 T01580093
KJSO 160455Z AUTO 36005KT 10SM CLR 16/09 A3021 RMK AO2 T01620094
KJSO 160435Z AUTO 01006KT 10SM CLR 16/09 A3021 RMK AO2 T01670093
KJSO 160415Z AUTO 36006KT 10SM CLR 17/09 A3019 RMK AO2 T01710092
KJSO 160355Z AUTO 36006KT 10SM CLR 17/09 A3018 RMK AO2 T01740095
KJSO 160335Z AUTO 36006KT 10SM CLR 17/10 A3017 RMK AO2 T01780098
KJSO 160315Z AUTO 36007KT 10SM CLR 18/10 A3016 RMK AO2 T01820099
KJSO 160255Z AUTO 36007G17KT 10SM CLR 18/10 A3015 RMK AO2 T01860101
KJSO 160235Z AUTO 36009G16KT 10SM CLR 18/10 A3014 RMK AO2 T01900106
KJSO 160215Z AUTO 36010G15KT 10SM CLR 19/11 A3014 RMK AO2 T01920114
KJSO 160155Z AUTO 36008G15KT 10SM CLR 20/12 A3013 RMK AO2 T01970126
KJSO 160135Z AUTO 36009G15KT 10SM CLR 20/13 A3011 RMK AO2 T02010136
KJSO 160115Z AUTO 35009G14KT 290V360 10SM CLR 20/15 A3010 RMK AO2 T02050148
KJSO 160055Z AUTO 36009KT 10SM CLR 20/16 A3009 RMK AO2 T02050165
KJSO 160035Z AUTO 35005KT 10SM CLR 21/16 A3008 RMK AO2 T02100168
KJSO 160015Z AUTO 34005KT 10SM CLR 21/17 A3007 RMK AO2 T02160172
KJSO 152355Z AUTO 35012G16KT 290V360 10SM SCT027 SCT032 22/17 A3005 RMK AO2 T02240175
KJSO 152335Z AUTO 35008KT 290V010 10SM SCT027 23/17 A3004 RMK AO2 T02350180
KJSO 152315Z AUTO 35006G17KT 10SM CLR 24/18 A3002 RMK AO2 T02430181
KJSO 152255Z AUTO 35008G17KT 310V010 10SM SCT046 SCT050 25/18 A3001 RMK AO2 T02540187
KJSO 152235Z AUTO 32009G14KT 280V360 10SM BKN046 OVC055 26/18 A3000 RMK AO2 T02690183
KJSO 152215Z AUTO 30010G17KT 270V350 10SM SCT044 BKN060 27/17 A2999 RMK AO2 T02700180
KJSO 152155Z AUTO 31013G16KT 280V350 10SM SCT050 27/18 A2998 RMK AO2 T02750187
KJSO 152135Z AUTO 31008G16KT 280V360 10SM SCT034 SCT047 27/19 A2997 RMK AO2 T02800194
KJSO 152115Z AUTO 28013G18KT 10SM SCT034 BKN047 28/20 A2997 RMK AO2 T02860200
KJSO 152055Z AUTO 28012G16KT 270V330 10SM SCT031 SCT039 SCT047 28/21 A2997 RMK AO2 T02830208
KJSO 152035Z AUTO 30011G15KT 270V350 10SM CLR 28/21 A2996 RMK AO2 T02890213
KJSO 152015Z AUTO 29010KT 270V340 10SM SCT026 SCT031 SCT055 28/21 A2996 RMK AO2 T02850215
KJSO 151955Z AUTO 28011G16KT 10SM SCT055 28/21 A2996 RMK AO2 T02850215
KJSO 151935Z AUTO 28011G15KT 10SM SCT028 SCT036 28/21 A2996 RMK AO2 T02850219
KJSO 151915Z AUTO 29013G17KT 280V340 10SM SCT024 SCT029 SCT034 28/22 A2996 RMK AO2 T02890221
KJSO 151855Z AUTO 28011G16KT 10SM SCT022 SCT027 BKN050 27/22 A2996 RMK AO2 T02780221
KJSO 151835Z AUTO 28009G14KT 10SM SCT022 SCT027 BKN036 27/22 A2997 RMK AO2 T02740223
KJSO 151815Z AUTO 27009KT 10SM SCT022 SCT028 BKN034 28/22 A2997 RMK AO2 T02820221
KJSO 151755Z AUTO 27007KT 10SM BKN022 BKN029 BKN039 27/22 A2998 RMK AO2 T02740223
KJSO 151735Z AUTO 27007KT 10SM SCT022 BKN029 BKN034 27/22 A2999 RMK AO2 T02720222
KJSO 151715Z AUTO 25006KT 10SM SCT018 26/22 A2999 RMK AO2 T02670222
KJSO 151655Z AUTO 25005KT 10SM BKN016 BKN021 26/22 A2999 RMK AO2 T02620221
KJSO 151635Z AUTO 21008G14KT 190V270 10SM OVC016 25/21 A2999 RMK AO2 T02530219
KJSO 151615Z AUTO 23005G15KT 190V270 10SM BKN016 OVC021 26/21 A3000 RMK AO2 T02600217
KJSO 151555Z AUTO 20009G15KT 10SM OVC019 26/21 A2999 RMK AO2 T02600215
KJSO 151535Z AUTO 27008KT 10SM BKN017 BKN024 25/21 A2999 RMK AO2 T02510217
KJSO 151515Z AUTO 20009KT 180V260 10SM SCT013 BKN020 25/21 A2998 RMK AO2 T02520218
KJSO 151455Z AUTO 24007KT 190V270 10SM BKN010 OVC015 25/22 A2997 RMK AO2 T02500224
KJSO 151435Z AUTO 21006KT 180V240 10SM SCT007 BKN011 OVC016 24/22 A2996 RMK AO2 T02440227
KJSO 151415Z AUTO 23004KT 10SM BKN005 BKN011 OVC029 23/22 A2996 RMK AO2 T02380229
KJSO 151355Z AUTO 24003KT 10SM BKN005 BKN010 OVC025 23/22 A2996 RMK AO2 T02330228
KJSO 151335Z AUTO 23005KT 7SM SCT004 BKN009 OVC018 23/22 A2995 RMK AO2 T02310230
KJSO 151315Z AUTO 20005KT 5SM BR BKN004 BKN012 OVC019 22/22 A2994 RMK AO2 T02290227
KJSO 151255Z AUTO 19006KT 5SM BR OVC004 22/22 A2993 RMK AO2 T02280227
KJSO 151235Z AUTO 19006KT 5SM BR BKN004 BKN008 OVC012 22/22 A2992 RMK AO2 T02270226
KJSO 151215Z AUTO 19007KT 7SM BKN004 OVC010 22/22 A2992 RMK AO2 T02280227
KJSO 151155Z AUTO 19006KT 7SM OVC004 22/22 A2991 RMK AO2 T02280227
KJSO 151135Z AUTO 19006KT 7SM BKN002 OVC007 22/22 A2992 RMK AO2 T02280228
KJSO 151115Z AUTO 19006KT 5SM BR OVC002 22/22 A2991 RMK AO2 T02280228
KJSO 151055Z AUTO 19005KT 4SM BR OVC002 22/22 A2991 RMK AO2 T02270227
KJSO 151035Z AUTO 19007KT 2SM BR OVC002 22/22 A2990 RMK AO2 T02270227
KJSO 151015Z AUTO 18008KT 3/4SM BR OVC002 22/22 A2990 RMK AO2 T02250225
KJSO 150955Z AUTO 18009KT 1 1/4SM BR OVC002 22/22 A2990 RMK AO2 T02260226
KJSO 150935Z AUTO 19006KT 2 1/2SM BR OVC002 22/22 A2989 RMK AO2 T02270226
KJSO 150915Z AUTO 18006KT 2SM BR OVC002 22/22 A2989 RMK AO2 T02280227
KJSO 150855Z AUTO 18005KT 1 1/4SM BR OVC002 22/22 A2989 RMK AO2 T02270226
KJSO 150835Z AUTO 18006KT 2SM BR OVC002 22/22 A2990 RMK AO2 T02260225
KJSO 150815Z AUTO 17005KT 5SM BR OVC004 22/22 A2990 RMK AO2 T02250225
KJSO 150755Z AUTO 18005KT 7SM SCT006 BKN012 BKN033 22/22 A2991 RMK AO2 T02230222
KJSO 150735Z AUTO 18004KT 5SM BR SCT010 SCT036 SCT043 22/21 A2991 RMK AO2 T02200218
KJSO 150715Z AUTO 17004KT 7SM SCT010 SCT016 SCT038 22/22 A2991 RMK AO2 T02220220